Terminal Aerodrome Forecast
Issued by NWS Sioux Falls, SD

Home | Current Version | Previous Version | Graphics & Text | Print | Product List | Glossary On
Versions: 1 2 3 4 5 6 7 8 9 10 11 12 13 14 15 16 17 18 19 20 21 22 23 24 25 26 27 28 29 30 31
335
FTUS43 KFSD 240539
TAFSUX
TAF
KSUX 240539Z 2406/2506 32004KT P6SM FEW250 WS014/17040KT
     FM241000 15005KT P6SM FEW250 WS020/19040KT
     FM241300 15008KT P6SM SCT250
     FM241500 16012KT P6SM FEW250
     FM241800 18015G23KT P6SM VCTS SCT080CB
     FM250000 18007KT P6SM SHRA OVC070
     FM250200 25006KT P6SM SHRA OVC070
     FM250300 28006KT P6SM SHRA OVC070=

USA.gov is the U.S. government's official web portal to all federal, state and local government web resources and services.